Time;durP1;ratioP1;P1;durP2;ratioP2;P2;SDS_P1;SDS_P2;PMS_P1;PMS_P2;Temp;Humidity;BMP_temperature;BMP_pressure;BME280_temperature;BME280_humidity;BME280_pressure;Samples;Min_cycle;Max_cycle;Signal;HPM_P1;HPM_P2
2022/06/08 00:00:54;;;;;;;5.30;4.80;;;;;;;20.61;54.69;98985.81;5051375;28;20045;-86
2022/06/08 00:03:45;;;;;;;5.72;5.22;;;;;;;20.91;55.00;99054.22;5051164;28;20395;-86
2022/06/08 00:06:11;;;;;;;6.70;5.00;;;;;;;20.69;54.98;99016.72;5052344;28;20090;-86
2022/06/08 00:08:36;;;;;;;5.40;4.90;;;;;;;20.50;55.09;98986.00;5050963;28;20052;-85
2022/06/08 00:11:02;;;;;;;5.30;4.90;;;;;;;20.53;55.19;99014.97;5051191;28;20124;-86
2022/06/08 00:13:27;;;;;;;5.40;4.47;;;;;;;20.90;55.47;99053.41;5050990;28;20025;-86
2022/06/08 00:15:54;;;;;;;5.18;4.68;;;;;;;20.40;55.20;98991.28;5052078;28;20508;-86
2022/06/08 00:18:19;;;;;;;7.30;5.07;;;;;;;20.21;55.17;98940.69;5050652;28;20025;-85
2022/06/08 00:20:45;;;;;;;4.80;4.30;;;;;;;20.76;55.39;99048.69;5052100;28;20031;-86
2022/06/08 00:23:10;;;;;;;7.05;5.03;;;;;;;20.76;55.41;99036.09;5052111;28;20025;-85
2022/06/08 00:25:36;;;;;;;5.63;4.70;;;;;;;20.74;55.16;99030.16;5050667;28;20056;-86
2022/06/08 00:28:01;;;;;;;5.03;4.63;;;;;;;20.15;55.15;98947.06;5051035;28;20029;-85
2022/06/08 00:30:27;;;;;;;5.03;4.53;;;;;;;20.66;55.38;99014.53;5050196;28;20094;-85
2022/06/08 00:32:52;;;;;;;5.10;4.70;;;;;;;20.67;54.84;99024.22;5050823;28;20067;-86
2022/06/08 00:35:18;;;;;;;4.75;4.32;;;;;;;20.19;54.69;98939.31;5050771;28;20036;-85
2022/06/08 00:37:43;;;;;;;4.68;4.28;;;;;;;20.71;54.63;99022.63;5050847;28;20025;-86
2022/06/08 00:40:11;;;;;;;5.25;4.43;;;;;;;20.43;54.42;98955.91;5050676;28;20032;-86
2022/06/08 00:42:40;;;;;;;5.13;4.70;;;;;;;21.10;54.18;99058.09;5051875;28;20521;-86
2022/06/08 00:45:12;;;;;;;4.75;4.32;;;;;;;21.25;53.91;99063.59;5050614;28;20056;-86
2022/06/08 00:47:48;;;;;;;5.95;4.82;;;;;;;21.09;54.12;99042.25;5052151;28;20075;-85
2022/06/08 00:50:44;;;;;;;5.05;4.55;;;;;;;20.07;54.43;98887.75;5051886;28;20405;-85
2022/06/08 00:53:13;;;;;;;5.35;4.85;;;;;;;20.44;54.55;98966.38;5050757;28;20040;-86
2022/06/08 00:55:40;;;;;;;5.65;5.07;;;;;;;21.06;54.67;99067.72;5051807;28;20045;-86
2022/06/08 00:58:13;;;;;;;5.50;4.60;;;;;;;21.04;54.63;99082.47;5052001;28;20033;-85
2022/06/08 01:00:40;;;;;;;5.72;5.07;;;;;;;20.52;54.87;98989.22;5051904;28;20508;-86
2022/06/08 01:03:08;;;;;;;8.00;5.88;;;;;;;20.42;54.77;98986.47;5050570;28;20032;-85
2022/06/08 01:05:54;;;;;;;8.15;5.50;;;;;;;21.08;54.87;99078.22;5051837;28;20025;-86
2022/06/08 01:08:20;;;;;;;5.75;5.10;;;;;;;21.02;54.95;99072.00;5051632;28;20032;-86
2022/06/08 01:10:48;;;;;;;9.00;5.78;;;;;;;20.38;55.01;98990.69;5050278;28;20028;-86
2022/06/08 01:13:14;;;;;;;8.75;5.47;;;;;;;20.58;55.39;99017.69;5051244;28;20057;-85
2022/06/08 01:15:41;;;;;;;8.65;5.47;;;;;;;20.57;55.19;99024.13;5050085;28;20082;-86
2022/06/08 01:18:07;;;;;;;8.10;6.13;;;;;;;20.70;55.28;99055.09;5050218;28;20037;-85
2022/06/08 01:20:33;;;;;;;7.50;5.50;;;;;;;20.53;55.43;99014.97;5051355;28;20025;-85
2022/06/08 01:22:59;;;;;;;11.25;6.43;;;;;;;19.92;55.51;98939.31;5050090;28;20036;-85
2022/06/08 01:25:32;;;;;;;8.32;6.20;;;;;;;19.81;55.67;98921.53;5051236;28;20056;-86
2022/06/08 01:28:24;;;;;;;8.93;6.55;;;;;;;20.58;56.10;99053.38;5051617;28;20032;-85
2022/06/08 01:30:57;;;;;;;10.88;6.72;;;;;;;20.19;56.16;98980.34;5051525;28;20013;-86
2022/06/08 01:33:29;;;;;;;10.98;6.25;;;;;;;19.15;56.01;98811.81;5051439;28;20032;-85
2022/06/08 01:36:12;;;;;;;8.38;6.05;;;;;;;19.79;56.02;98899.53;5050109;28;20130;-86
2022/06/08 01:39:04;;;;;;;10.95;6.13;;;;;;;20.77;55.80;99056.47;5051162;28;20024;-85
2022/06/08 01:41:43;;;;;;;7.70;5.85;;;;;;;20.08;55.75;98929.56;5052486;28;20029;-85
2022/06/08 01:44:40;;;;;;;9.50;5.70;;;;;;;20.86;55.86;99049.59;5053828;28;20032;-85
2022/06/08 01:47:34;;;;;;;7.40;6.65;;;;;;;20.58;55.88;99023.88;5053922;28;20043;-86
2022/06/08 01:50:11;;;;;;;6.43;5.80;;;;;;;20.76;55.59;99052.19;5041253;28;20047;-85
2022/06/08 01:52:39;;;;;;;6.78;5.50;;;;;;;20.73;55.70;99049.19;5053894;28;20021;-85
2022/06/08 01:55:20;;;;;;;7.50;5.57;;;;;;;20.11;55.22;98951.31;5054979;28;20103;-86
2022/06/08 01:57:58;;;;;;;6.30;5.70;;;;;;;20.65;55.26;99055.84;5053590;28;20512;-86
2022/06/08 02:00:32;;;;;;;8.55;5.88;;;;;;;20.53;55.29;99071.31;5054702;28;20033;-86
2022/06/08 02:03:02;;;;;;;7.45;5.35;;;;;;;20.44;55.49;99054.06;5053590;28;20091;-85
2022/06/08 02:05:30;;;;;;;5.97;5.35;;;;;;;20.38;55.45;99050.47;5053553;28;20021;-86
2022/06/08 02:08:08;;;;;;;7.55;5.53;;;;;;;19.91;55.58;98991.28;5055225;28;20055;-86
2022/06/08 02:10:45;;;;;;;6.20;5.20;;;;;;;20.27;55.46;99071.03;5053555;28;20032;-86
2022/06/08 02:13:44;;;;;;;6.25;5.57;;;;;;;19.90;55.85;99000.38;5053076;28;20124;-86
2022/06/08 02:16:34;;;;;;;5.50;5.00;;;;;;;19.86;55.79;99005.44;5046446;28;20048;-86
2022/06/08 02:19:32;;;;;;;6.82;5.40;;;;;;;19.38;55.93;98936.56;5054156;28;20107;-86
2022/06/08 02:22:20;;;;;;;5.80;5.30;;;;;;;19.95;56.09;99036.06;5053742;28;20037;-85
2022/06/08 02:25:21;;;;;;;5.80;5.32;;;;;;;19.88;56.15;99040.81;5053102;28;20029;-85
2022/06/08 02:27:59;;;;;;;6.32;4.93;;;;;;;19.89;56.09;99047.81;5034347;28;20107;-86
2022/06/08 02:30:29;;;;;;;6.47;5.57;;;;;;;19.47;55.85;98985.94;5054441;28;20024;-86
2022/06/08 02:35:57;;;;;;;6.13;5.53;;;;;;;19.22;56.23;98975.69;5053951;28;20027;-86
2022/06/08 02:38:35;;;;;;;6.13;5.53;;;;;;;19.61;56.29;99051.47;5053087;28;20063;-86
2022/06/08 02:41:04;;;;;;;6.00;5.40;;;;;;;19.50;56.51;99060.41;5052659;28;20017;-85
2022/06/08 02:43:38;;;;;;;7.18;5.63;;;;;;;19.44;56.21;99060.59;5052887;28;20017;-86
2022/06/08 02:46:22;;;;;;;7.32;5.50;;;;;;;19.04;56.45;98998.19;5052438;28;20043;-85
2022/06/08 02:48:47;;;;;;;6.40;5.55;;;;;;;19.13;56.53;99017.31;5052470;28;20024;-86
2022/06/08 02:51:13;;;;;;;6.10;5.32;;;;;;;19.07;56.60;99012.94;5052300;28;20039;-86
2022/06/08 02:53:59;;;;;;;6.82;6.13;;;;;;;19.35;56.66;99069.03;5053245;28;20025;-86
2022/06/08 02:56:33;;;;;;;6.30;5.80;;;;;;;19.27;56.91;99074.78;5053772;28;20041;-85
2022/06/08 02:59:07;;;;;;;6.82;5.80;;;;;;;19.02;56.91;99042.31;5054370;28;20020;-85
2022/06/08 03:01:44;;;;;;;6.13;5.53;;;;;;;19.09;56.91;99056.31;5053028;28;20567;-86
2022/06/08 03:04:37;;;;;;;7.95;5.72;;;;;;;19.14;57.40;99077.00;5052760;28;20032;-86
2022/06/08 03:07:14;;;;;;;5.32;4.82;;;;;;;18.92;56.94;99052.84;5054096;28;20078;-86
2022/06/08 03:09:41;;;;;;;6.90;5.30;;;;;;;18.45;56.93;99002.31;5054102;28;20029;-86
2022/06/08 03:12:15;;;;;;;9.45;5.93;;;;;;;19.18;57.13;99110.25;5054518;28;20032;-85
2022/06/08 03:14:42;;;;;;;7.25;5.75;;;;;;;18.97;57.02;99077.81;5052873;28;20028;-86
2022/06/08 03:17:10;;;;;;;6.65;6.00;;;;;;;19.18;56.95;99095.00;5052981;28;20024;-86
2022/06/08 03:19:37;;;;;;;7.75;5.95;;;;;;;18.54;56.95;98997.38;5052424;28;20033;-86
2022/06/08 03:22:05;;;;;;;8.30;5.40;;;;;;;19.24;56.86;99107.41;5053457;28;20029;-86
2022/06/08 03:24:30;;;;;;;6.55;5.95;;;;;;;18.79;57.04;99024.56;5052647;28;20063;-85
2022/06/08 03:26:59;;;;;;;6.90;6.25;;;;;;;19.27;56.90;99085.50;5052457;28;20025;-86
2022/06/08 03:29:26;;;;;;;6.05;5.40;;;;;;;19.36;56.85;99086.72;5052242;28;20020;-85
2022/06/08 03:31:52;;;;;;;5.82;5.22;;;;;;;18.89;56.51;99008.69;5052000;28;20052;-86
2022/06/08 03:34:18;;;;;;;7.40;5.70;;;;;;;19.45;56.52;99084.44;5052282;28;20029;-86
2022/06/08 03:36:44;;;;;;;6.45;5.75;;;;;;;19.39;56.47;99090.78;5052459;28;20025;-85
2022/06/08 03:39:10;;;;;;;8.70;6.35;;;;;;;19.10;56.43;99059.81;5053241;28;20024;-85
2022/06/08 03:41:35;;;;;;;8.77;6.43;;;;;;;18.96;56.66;99048.63;5052056;28;20078;-86
2022/06/08 03:44:03;;;;;;;6.18;5.50;;;;;;;19.15;56.53;99075.94;5051688;28;20025;-86
2022/06/08 03:46:34;;;;;;;6.40;5.63;;;;;;;18.85;56.63;99028.13;5051582;28;20490;-85
2022/06/08 03:48:59;;;;;;;8.55;6.00;;;;;;;18.87;56.59;99045.56;5051373;28;20060;-86
2022/06/08 03:51:25;;;;;;;8.05;5.65;;;;;;;18.87;56.46;99007.31;5051593;28;20051;-86
2022/06/08 03:54:04;;;;;;;7.78;5.63;;;;;;;18.90;56.56;99023.69;5051390;28;20047;-86
2022/06/08 03:56:32;;;;;;;6.30;5.63;;;;;;;18.65;56.49;98983.16;5051592;28;20502;-85
2022/06/08 03:58:57;;;;;;;6.80;5.13;;;;;;;18.75;56.47;99014.59;5052845;28;20028;-86
2022/06/08 04:01:23;;;;;;;7.53;5.85;;;;;;;19.11;56.50;99072.13;5053034;28;20025;-86
2022/06/08 04:03:52;;;;;;;6.93;5.57;;;;;;;18.55;56.65;98988.28;5052063;28;20025;-86
2022/06/08 04:06:19;;;;;;;7.15;5.80;;;;;;;18.73;56.68;99010.31;5051813;28;20508;-86
2022/06/08 04:08:44;;;;;;;6.55;6.00;;;;;;;18.85;56.54;99047.66;5051938;28;20414;-86
2022/06/08 04:11:10;;;;;;;6.40;5.80;;;;;;;18.64;56.30;98994.91;5051994;28;20021;-86
2022/06/08 04:13:35;;;;;;;6.45;5.78;;;;;;;18.40;56.54;98967.47;5052214;28;20087;-86
2022/06/08 04:16:03;;;;;;;6.95;5.45;;;;;;;18.65;56.76;98993.88;5062484;28;20025;-85
2022/06/08 04:18:29;;;;;;;13.45;5.88;;;;;;;19.17;56.60;99098.72;5066201;28;20051;-84
2022/06/08 04:20:57;;;;;;;9.00;5.93;;;;;;;19.01;56.47;99072.78;5064904;28;20123;-85
2022/06/08 04:23:26;;;;;;;6.30;5.80;;;;;;;19.21;56.31;99072.28;5052537;28;20039;-86
2022/06/08 04:25:53;;;;;;;7.10;5.80;;;;;;;19.53;56.22;99110.81;5051439;28;20032;-86
2022/06/08 04:28:19;;;;;;;7.30;5.63;;;;;;;19.55;56.32;99111.38;5051234;28;20029;-85
2022/06/08 04:30:45;;;;;;;6.45;5.85;;;;;;;18.77;56.18;98997.25;5052838;28;20029;-86
2022/06/08 04:33:11;;;;;;;6.50;5.90;;;;;;;19.67;56.14;99119.31;5052657;28;20500;-86
2022/06/08 04:35:38;;;;;;;7.20;5.53;;;;;;;19.74;56.05;99116.44;5052511;28;20036;-85
2022/06/08 04:38:05;;;;;;;11.85;6.25;;;;;;;19.41;55.81;99051.19;5050994;28;20494;-85
2022/06/08 04:40:31;;;;;;;10.90;6.70;;;;;;;19.33;55.58;99024.84;5050928;28;20032;-86
2022/06/08 04:42:56;;;;;;;7.68;5.55;;;;;;;19.49;55.54;99050.75;5052277;28;20048;-85
2022/06/08 04:45:22;;;;;;;8.68;5.90;;;;;;;19.55;55.71;99057.03;5050600;28;20032;-85
2022/06/08 04:47:48;;;;;;;9.95;6.50;;;;;;;19.75;55.54;99070.66;5050837;28;20114;-86
2022/06/08 04:50:14;;;;;;;6.60;5.88;;;;;;;20.06;55.53;99119.25;5051776;28;20474;-86
2022/06/08 04:52:39;;;;;;;10.75;7.50;;;;;;;19.42;55.45;99009.97;5057308;28;20088;-85
2022/06/08 04:55:08;;;;;;;7.78;6.18;;;;;;;19.53;55.38;99038.53;5067000;28;20053;-85
2022/06/08 04:57:37;;;;;;;6.38;5.78;;;;;;;19.53;55.42;99011.75;5062878;28;20032;-86
2022/06/08 05:00:08;;;;;;;8.10;6.35;;;;;;;19.98;55.12;99083.00;5050021;28;20100;-86
2022/06/08 05:02:48;;;;;;;7.63;6.85;;;;;;;20.07;55.35;99099.47;5051272;28;20025;-86
2022/06/08 05:05:31;;;;;;;7.30;6.38;;;;;;;20.36;55.47;99121.50;5051637;28;20062;-86
2022/06/08 05:07:57;;;;;;;8.40;6.82;;;;;;;20.38;55.59;99128.25;5050207;28;20032;-85
2022/06/08 05:10:26;;;;;;;7.25;6.40;;;;;;;20.17;55.35;99084.31;5051382;28;20064;-86
2022/06/08 05:12:51;;;;;;;7.82;7.03;;;;;;;19.99;55.32;99049.78;5051294;28;20033;-86
2022/06/08 05:15:21;;;;;;;7.10;6.38;;;;;;;20.06;55.00;99050.41;5051098;28;20052;-85
2022/06/08 05:17:46;;;;;;;9.32;6.88;;;;;;;20.28;54.78;99055.75;5051682;28;20047;-86
2022/06/08 05:20:14;;;;;;;10.80;7.10;;;;;;;20.84;54.55;99126.06;5050179;28;20033;-85
2022/06/08 05:22:39;;;;;;;10.38;7.15;;;;;;;20.57;54.72;99086.63;5051205;28;20033;-85
2022/06/08 05:25:09;;;;;;;12.88;8.10;;;;;;;20.35;54.38;99036.78;5050064;28;20182;-85
2022/06/08 05:27:35;;;;;;;7.75;6.90;;;;;;;20.67;54.19;99085.09;5049951;28;20055;-86
2022/06/08 05:30:00;;;;;;;8.20;7.40;;;;;;;20.72;53.97;99066.38;5051368;28;20517;-86
2022/06/08 05:32:26;;;;;;;8.20;7.25;;;;;;;21.11;53.34;99115.28;5051361;28;20028;-85
2022/06/08 05:34:51;;;;;;;9.50;6.82;;;;;;;20.62;53.39;99042.94;5049585;28;20104;-85
2022/06/08 05:37:17;;;;;;;8.35;6.13;;;;;;;20.67;52.85;99058.28;5043083;28;20498;-85
2022/06/08 05:39:42;;;;;;;8.20;6.22;;;;;;;21.04;52.40;99093.22;5051705;28;20016;-85
2022/06/08 05:42:08;;;;;;;7.40;6.30;;;;;;;20.84;51.90;99062.47;5034019;28;20029;-86
2022/06/08 05:44:35;;;;;;;7.45;6.60;;;;;;;21.08;51.42;99075.53;5035859;28;20041;-86
2022/06/08 05:47:02;;;;;;;7.60;6.80;;;;;;;21.55;51.67;99132.00;5041250;28;20021;-86
2022/06/08 05:49:29;;;;;;;7.00;6.30;;;;;;;21.60;51.80;99128.56;5031336;28;20063;-86
2022/06/08 05:51:54;;;;;;;7.90;6.53;;;;;;;21.68;52.15;99136.13;5031186;28;20026;-86
2022/06/08 05:54:20;;;;;;;8.23;7.40;;;;;;;21.13;51.92;99046.03;5042715;28;20039;-87
2022/06/08 05:56:45;;;;;;;9.55;8.52;;;;;;;21.55;51.81;99105.13;5049718;28;20486;-86
2022/06/08 05:59:11;;;;;;;9.52;8.07;;;;;;;21.58;51.97;99093.91;5038827;28;20025;-87
2022/06/08 06:01:37;;;;;;;9.02;8.10;;;;;;;21.47;52.05;99068.81;5030635;28;20479;-87
2022/06/08 06:04:05;;;;;;;9.02;8.13;;;;;;;21.71;51.90;99096.09;5043318;28;20025;-87
2022/06/08 06:06:31;;;;;;;9.30;7.82;;;;;;;22.03;51.99;99124.75;5042856;28;20487;-86
2022/06/08 06:08:57;;;;;;;12.80;10.45;;;;;;;21.92;52.19;99080.06;5030914;28;20029;-87
2022/06/08 06:11:22;;;;;;;10.05;8.20;;;;;;;21.61;52.18;99041.53;5033899;28;20141;-86
2022/06/08 06:13:48;;;;;;;10.85;9.73;;;;;;;21.63;52.23;99015.19;5049677;28;20108;-87
2022/06/08 06:16:13;;;;;;;10.98;8.05;;;;;;;21.99;52.15;99077.94;5049598;28;20036;-86
2022/06/08 06:18:39;;;;;;;14.20;8.73;;;;;;;21.68;52.21;99016.03;5049756;28;20033;-86
2022/06/08 06:21:04;;;;;;;12.77;8.70;;;;;;;21.73;52.47;99010.66;5049791;28;20043;-86
2022/06/08 06:23:30;;;;;;;11.35;8.82;;;;;;;22.07;52.16;99035.25;5051167;28;20033;-86
2022/06/08 06:25:56;;;;;;;12.98;9.70;;;;;;;21.77;52.31;98979.50;5049635;28;20033;-86
2022/06/08 06:28:21;;;;;;;9.25;7.85;;;;;;;22.51;52.40;99088.63;5050675;28;20112;-86
2022/06/08 06:30:47;;;;;;;8.02;7.28;;;;;;;22.80;52.01;99123.94;5050790;28;20086;-86
2022/06/08 06:33:14;;;;;;;11.32;10.20;;;;;;;22.26;52.32;99027.50;5036502;28;20553;-86
2022/06/08 06:35:41;;;;;;;9.77;7.45;;;;;;;22.22;52.16;99052.50;5032385;28;20025;-85
2022/06/08 06:38:08;;;;;;;12.43;11.07;;;;;;;22.55;52.50;99059.28;5032779;28;20041;-85
2022/06/08 06:40:34;;;;;;;8.48;7.68;;;;;;;22.33;52.27;99024.56;5039158;28;20044;-86
2022/06/08 06:43:00;;;;;;;16.55;12.95;;;;;;;22.33;52.31;99001.19;5039674;28;20030;-86
2022/06/08 06:45:26;;;;;;;11.10;8.18;;;;;;;22.58;52.18;99035.34;5035572;28;20078;-84
2022/06/08 06:47:52;;;;;;;13.75;10.15;;;;;;;22.69;52.33;99030.78;5053613;28;20028;-84
2022/06/08 06:50:18;;;;;;;12.43;11.15;;;;;;;22.89;52.22;99054.22;5049777;28;20135;-85
2022/06/08 06:52:47;;;;;;;11.27;9.95;;;;;;;22.47;52.42;98983.44;5040300;28;20026;-84
2022/06/08 06:55:24;;;;;;;13.13;8.60;;;;;;;22.71;52.14;99017.84;5035960;28;20053;-85
2022/06/08 06:57:50;;;;;;;13.55;9.18;;;;;;;23.39;51.97;99116.13;5040286;28;20048;-85
2022/06/08 07:00:17;;;;;;;12.20;9.43;;;;;;;23.48;51.80;99107.50;5033173;28;20529;-85
2022/06/08 07:02:43;;;;;;;10.35;8.52;;;;;;;23.01;51.72;99030.50;5041815;28;20032;-85
2022/06/08 07:05:21;;;;;;;10.60;9.65;;;;;;;22.97;51.51;99002.50;5051183;28;20068;-84
2022/06/08 07:07:48;;;;;;;9.68;8.65;;;;;;;23.62;51.57;99108.56;5036036;28;20047;-84
2022/06/08 07:10:14;;;;;;;9.55;8.57;;;;;;;23.38;51.38;99076.78;5034935;28;20085;-83
2022/06/08 07:12:40;;;;;;;9.40;8.48;;;;;;;22.92;51.66;98987.19;5040185;28;20035;-85
2022/06/08 07:15:06;;;;;;;9.65;8.30;;;;;;;23.33;51.60;99047.16;5045796;28;20025;-84
2022/06/08 07:17:31;;;;;;;9.20;8.30;;;;;;;23.13;51.74;99007.63;5050028;28;20497;-84
2022/06/08 07:19:57;;;;;;;9.90;7.43;;;;;;;23.27;51.41;99015.13;5031105;28;20116;-84
2022/06/08 07:22:22;;;;;;;11.40;10.40;;;;;;;23.80;51.10;99097.22;5050446;28;20033;-83
2022/06/08 07:24:48;;;;;;;8.07;7.38;;;;;;;23.46;51.21;99008.06;5035291;28;20086;-83
2022/06/08 07:27:13;;;;;;;9.05;6.53;;;;;;;23.76;50.73;99039.50;5039232;28;20418;-83
2022/06/08 07:29:39;;;;;;;10.65;7.78;;;;;;;23.67;50.79;99004.22;5047435;28;20441;-84
2022/06/08 07:32:05;;;;;;;7.97;6.38;;;;;;;23.86;50.06;99022.50;5052076;28;20025;-84
2022/06/08 07:34:31;;;;;;;7.32;6.60;;;;;;;24.25;50.11;99087.28;5046746;28;20028;-84
2022/06/08 07:36:57;;;;;;;7.40;6.65;;;;;;;23.71;49.85;98993.69;5039854;28;20044;-84
2022/06/08 07:39:23;;;;;;;8.57;7.13;;;;;;;23.68;49.59;98978.09;5035522;28;20041;-84
2022/06/08 07:41:49;;;;;;;10.45;9.45;;;;;;;24.40;49.47;99076.44;5030874;28;20025;-85
2022/06/08 07:44:17;;;;;;;7.85;7.05;;;;;;;24.36;49.23;99094.28;5035901;28;20033;-84
2022/06/08 07:46:43;;;;;;;7.53;6.75;;;;;;;24.42;49.00;99071.56;5039066;28;20112;-84
2022/06/08 07:51:59;;;;;;;7.80;7.10;;;;;;;24.15;49.31;99044.19;5053260;28;20036;-83
2022/06/08 07:54:27;;;;;;;11.27;10.10;;;;;;;24.36;49.46;99060.00;5048602;28;20075;-84
2022/06/08 07:56:54;;;;;;;9.55;8.63;;;;;;;24.16;49.20;99002.63;5038258;28;20395;-83
2022/06/08 07:59:22;;;;;;;7.82;7.13;;;;;;;24.67;48.79;99055.22;5035820;28;20523;-84
2022/06/08 08:01:48;;;;;;;8.60;7.70;;;;;;;24.34;48.87;98991.22;5034884;28;20036;-85
2022/06/08 08:04:14;;;;;;;9.52;8.70;;;;;;;24.56;47.55;99004.28;5045589;28;20036;-84
2022/06/08 08:06:39;;;;;;;7.78;6.90;;;;;;;24.73;47.19;99026.28;5047010;28;20036;-85
2022/06/08 08:09:05;;;;;;;7.90;7.10;;;;;;;25.08;46.83;99089.19;5056392;28;20038;-85
2022/06/08 08:11:30;;;;;;;8.18;7.45;;;;;;;24.41;46.42;98989.00;5069341;28;20032;-85
2022/06/08 08:13:56;;;;;;;7.30;6.55;;;;;;;24.78;46.77;99071.34;5042272;28;20029;-84
2022/06/08 08:16:21;;;;;;;7.72;7.13;;;;;;;24.92;47.34;99105.50;5045673;28;20088;-85
2022/06/08 08:18:48;;;;;;;7.95;7.25;;;;;;;24.42;47.47;99036.47;5042612;28;20542;-85
2022/06/08 08:21:13;;;;;;;11.18;10.07;;;;;;;24.40;47.78;99015.19;5031793;28;20418;-85
2022/06/08 08:23:39;;;;;;;8.15;7.45;;;;;;;24.38;47.77;99001.16;5043982;28;20066;-84
2022/06/08 08:26:04;;;;;;;8.70;7.85;;;;;;;24.65;47.30;99019.59;5049175;28;20033;-84
2022/06/08 08:28:30;;;;;;;8.18;7.50;;;;;;;24.75;47.02;99004.41;5048724;28;20037;-84
2022/06/08 08:30:55;;;;;;;9.00;8.20;;;;;;;24.93;46.65;99019.88;5043446;28;20474;-84
2022/06/08 08:33:20;;;;;;;8.15;7.45;;;;;;;25.31;46.42;99020.91;5046321;28;20028;-85
2022/06/08 08:35:46;;;;;;;7.55;6.95;;;;;;;25.52;45.83;99046.59;5035089;28;20036;-85
2022/06/08 08:38:11;;;;;;;7.22;6.53;;;;;;;25.85;45.13;99090.84;5049572;28;20036;-83
2022/06/08 08:40:51;;;;;;;7.38;6.70;;;;;;;25.85;44.54;99073.81;5045354;28;20033;-84
2022/06/08 08:43:24;;;;;;;8.13;7.20;;;;;;;25.93;44.65;99086.72;5044380;28;20033;-85
2022/06/08 08:45:52;;;;;;;16.13;14.52;;;;;;;26.00;44.52;99081.75;5048125;28;20024;-85
2022/06/08 08:48:26;;;;;;;10.43;9.43;;;;;;;25.86;43.82;99043.78;5041345;28;20025;-85
2022/06/08 08:51:06;;;;;;;8.70;8.00;;;;;;;25.82;43.34;99026.53;5036871;28;20035;-85
2022/06/08 08:53:47;;;;;;;8.35;7.50;;;;;;;25.89;43.20;99034.28;5036251;28;20025;-85
2022/06/08 08:56:22;;;;;;;7.85;7.05;;;;;;;25.36;43.71;98960.59;5048683;28;20047;-85
2022/06/08 08:58:48;;;;;;;7.22;6.53;;;;;;;25.45;43.79;99004.81;5048493;28;20032;-86
2022/06/08 09:01:19;;;;;;;10.77;9.88;;;;;;;25.13;44.02;98962.97;5036064;28;20032;-85
2022/06/08 09:03:57;;;;;;;9.77;8.82;;;;;;;25.06;44.21;98980.63;5030784;28;20029;-84
2022/06/08 09:06:26;;;;;;;8.32;7.63;;;;;;;24.81;44.57;98952.75;5035100;28;20418;-83
2022/06/08 09:08:54;;;;;;;9.43;8.68;;;;;;;25.03;44.56;99009.81;5066702;28;20028;-84
2022/06/08 09:11:27;;;;;;;9.52;8.60;;;;;;;25.42;44.45;99075.66;5067793;28;20017;-85
2022/06/08 09:13:52;;;;;;;9.68;8.88;;;;;;;25.42;44.53;99054.84;5040123;28;20421;-84
2022/06/08 09:16:39;;;;;;;8.85;8.05;;;;;;;25.53;43.98;99023.09;5036967;28;20029;-83
2022/06/08 09:19:32;;;;;;;8.15;7.53;;;;;;;25.94;43.34;99074.78;5034510;28;20063;-83
2022/06/08 09:22:19;;;;;;;9.98;9.18;;;;;;;26.06;43.54;99069.00;5030305;28;20105;-85
2022/06/08 09:24:53;;;;;;;10.35;9.35;;;;;;;26.28;43.34;99071.94;5045549;28;20134;-86
2022/06/08 09:27:23;;;;;;;13.93;9.98;;;;;;;26.47;43.25;99066.53;5038107;28;20051;-82
2022/06/08 09:29:58;;;;;;;13.07;9.00;;;;;;;26.93;42.44;99061.22;5039865;28;20106;-84
2022/06/08 09:32:53;;;;;;;11.35;10.25;;;;;;;27.18;41.87;99062.69;5035767;28;20048;-84
2022/06/08 09:35:37;;;;;;;8.65;7.95;;;;;;;27.28;41.22;99051.69;5031403;28;20027;-84
2022/06/08 09:38:11;;;;;;;10.52;9.48;;;;;;;27.73;40.60;99058.16;5030953;28;20364;-84
2022/06/08 09:41:04;;;;;;;11.07;9.57;;;;;;;28.11;40.33;99049.75;5037447;28;20513;-84
2022/06/08 09:43:55;;;;;;;8.60;7.88;;;;;;;28.40;39.19;99055.66;5042345;28;20025;-84
2022/06/08 09:52:42;;;;;;;9.75;8.85;;;;;;;29.04;38.06;99050.88;5030706;28;20418;-84
2022/06/08 09:55:25;;;;;;;10.25;9.40;;;;;;;29.29;37.57;99046.69;5011454;28;20058;-83
2022/06/08 09:58:12;;;;;;;8.73;8.02;;;;;;;29.36;36.72;99048.94;5031275;28;20029;-83
2022/06/08 10:00:52;;;;;;;7.75;6.97;;;;;;;29.32;36.09;99037.09;5029862;28;20037;-85
2022/06/08 10:03:56;;;;;;;9.25;8.40;;;;;;;29.45;35.40;99038.13;5034896;28;20035;-84
2022/06/08 10:06:29;;;;;;;11.00;10.10;;;;;;;29.27;35.46;98977.41;5033855;28;20113;-84
2022/06/08 10:09:24;;;;;;;9.18;7.28;;;;;;;29.61;34.43;99040.09;5011544;28;20089;-83
2022/06/08 10:11:58;;;;;;;10.32;9.35;;;;;;;29.66;35.06;99036.44;5009399;28;20041;-82
2022/06/08 10:14:39;;;;;;;8.35;7.55;;;;;;;29.93;34.85;99032.69;5017097;28;20036;-83
2022/06/08 10:17:30;;;;;;;11.85;10.77;;;;;;;30.04;34.20;99002.13;5012583;28;20124;-83
2022/06/08 10:20:12;;;;;;;9.32;8.60;;;;;;;29.85;34.41;98946.38;5013500;28;20030;-84
2022/06/08 10:23:24;;;;;;;9.80;9.00;;;;;;;30.61;32.61;99018.34;5014405;28;20030;-84
2022/06/08 10:26:19;;;;;;;9.52;8.70;;;;;;;30.67;32.61;99002.63;4997644;28;20041;-84
2022/06/08 10:28:52;;;;;;;9.10;8.32;;;;;;;31.02;33.01;99018.91;5019121;28;20037;-85
2022/06/08 10:31:38;;;;;;;12.30;11.23;;;;;;;31.36;32.56;99012.56;5014362;28;20486;-83
2022/06/08 10:34:10;;;;;;;8.95;8.25;;;;;;;31.43;32.42;99002.72;5014826;28;20499;-84
2022/06/08 10:36:36;;;;;;;10.50;9.63;;;;;;;30.02;32.83;98793.97;5014093;28;20036;-83
2022/06/08 10:39:04;;;;;;;9.20;8.38;;;;;;;31.13;33.04;98996.41;5012991;28;20045;-85
2022/06/08 10:44:33;;;;;;;;;;;;;;;31.51;32.57;98982.78;5031947;28;20121;-83
2022/06/08 10:47:18;;;;;;;12.45;11.45;;;;;;;31.04;32.43;98858.50;5027082;28;19909;-84
2022/06/08 10:49:53;;;;;;;9.00;8.20;;;;;;;31.73;31.72;98940.78;5014371;28;20021;-84
2022/06/08 10:52:19;;;;;;;8.38;7.65;;;;;;;32.15;31.12;98971.63;5029152;28;20017;-84
2022/06/08 10:54:57;;;;;;;9.60;8.70;;;;;;;32.25;31.06;98977.84;5033441;28;20056;-84
2022/06/08 10:58:01;;;;;;;8.07;6.43;;;;;;;31.15;29.52;98780.66;5022472;28;20026;-84
2022/06/08 11:00:58;;;;;;;8.85;8.05;;;;;;;32.26;29.85;98933.00;5038935;28;20022;-84
2022/06/08 11:03:42;;;;;;;9.15;8.13;;;;;;;32.57;29.93;98966.09;5014950;28;20030;-84
2022/06/08 11:06:10;;;;;;;9.93;9.02;;;;;;;32.09;30.18;98876.56;5013153;28;20105;-84
2022/06/08 11:08:51;;;;;;;8.52;7.70;;;;;;;32.74;29.41;98956.94;5048742;28;20082;-85
2022/06/08 11:11:37;;;;;;;10.85;9.95;;;;;;;32.79;28.99;98954.81;5045387;28;20076;-85
2022/06/08 11:14:26;;;;;;;10.40;9.50;;;;;;;32.96;28.92;98955.75;5025677;28;20026;-84
2022/06/08 11:16:53;;;;;;;9.93;8.93;;;;;;;33.07;29.10;98945.97;5024808;28;20383;-84
2022/06/08 11:19:19;;;;;;;9.50;8.57;;;;;;;32.49;28.96;98890.47;5037490;28;20029;-84
2022/06/08 11:22:00;;;;;;;7.15;6.65;;;;;;;32.19;28.40;98928.84;5047443;28;20028;-84
2022/06/08 11:24:34;;;;;;;8.38;7.78;;;;;;;31.12;30.68;98869.34;5012690;28;20091;-84
2022/06/08 11:27:14;;;;;;;7.70;7.20;;;;;;;31.15;31.45;98938.81;5012821;28;20034;-84
2022/06/08 11:29:46;;;;;;;11.52;10.48;;;;;;;31.23;31.61;98929.84;5041111;28;20490;-84
2022/06/08 11:33:00;;;;;;;9.63;8.82;;;;;;;31.38;31.12;98926.53;5047665;28;20120;-84
2022/06/08 11:35:46;;;;;;;6.75;6.20;;;;;;;31.77;30.35;98916.34;5030332;28;20060;-84
2022/06/08 11:38:40;;;;;;;11.38;10.43;;;;;;;32.14;29.75;98920.84;5016492;28;20089;-83
2022/06/08 11:41:31;;;;;;;10.43;9.45;;;;;;;32.54;29.80;98914.84;5020985;28;20406;-84
2022/06/08 11:43:59;;;;;;;10.27;9.38;;;;;;;32.70;29.18;98918.56;5015581;28;20113;-85
2022/06/08 11:46:36;;;;;;;7.65;6.97;;;;;;;32.42;28.71;98841.03;5012905;28;20041;-86
2022/06/08 11:49:03;;;;;;;5.93;5.32;;;;;;;32.95;28.42;98913.94;5013434;28;20392;-84
2022/06/08 11:51:41;;;;;;;12.90;11.77;;;;;;;33.09;28.78;98916.31;5030159;28;20022;-85
2022/06/08 11:54:27;;;;;;;9.35;8.48;;;;;;;33.25;28.35;98908.22;5013527;28;20038;-84
2022/06/08 11:56:55;;;;;;;6.82;6.32;;;;;;;33.23;28.47;98911.31;5014324;28;20056;-83
2022/06/08 11:59:22;;;;;;;6.55;5.45;;;;;;;33.30;27.67;98870.50;5037544;28;20143;-84
2022/06/08 12:01:54;;;;;;;6.93;5.72;;;;;;;33.28;26.99;98853.59;5017072;28;20045;-83
2022/06/08 12:04:25;;;;;;;6.13;5.53;;;;;;;33.96;26.89;98908.47;5020800;28;20048;-85
2022/06/08 12:06:53;;;;;;;7.55;6.75;;;;;;;33.85;27.33;98920.28;5013826;28;20101;-83
2022/06/08 12:09:36;;;;;;;6.63;6.15;;;;;;;33.10;27.91;98817.50;5010850;28;20030;-83